sensor_id;sensor_type;location;lat;lon;timestamp;P1;durP1;ratioP1;P2;durP2;ratioP2
8704;SDS011;4389;41.932;25.904;2022-12-18T00:02:15;48.07;;;30.77;;
8704;SDS011;4389;41.932;25.904;2022-12-18T00:04:42;50.10;;;31.80;;
8704;SDS011;4389;41.932;25.904;2022-12-18T00:07:10;45.17;;;29.70;;
8704;SDS011;4389;41.932;25.904;2022-12-18T00:09:37;53.33;;;33.07;;
8704;SDS011;4389;41.932;25.904;2022-12-18T00:12:04;52.00;;;33.23;;
8704;SDS011;4389;41.932;25.904;2022-12-18T00:14:31;55.90;;;34.57;;
8704;SDS011;4389;41.932;25.904;2022-12-18T00:16:58;53.70;;;36.37;;
8704;SDS011;4389;41.932;25.904;2022-12-18T00:19:26;55.10;;;35.53;;
8704;SDS011;4389;41.932;25.904;2022-12-18T00:21:53;64.17;;;33.63;;
8704;SDS011;4389;41.932;25.904;2022-12-18T00:24:22;54.13;;;32.93;;
8704;SDS011;4389;41.932;25.904;2022-12-18T00:26:48;61.07;;;36.77;;
8704;SDS011;4389;41.932;25.904;2022-12-18T00:29:15;60.67;;;34.50;;
8704;SDS011;4389;41.932;25.904;2022-12-18T00:31:42;63.57;;;34.93;;
8704;SDS011;4389;41.932;25.904;2022-12-18T00:34:10;65.00;;;33.77;;
8704;SDS011;4389;41.932;25.904;2022-12-18T00:36:38;59.37;;;33.27;;
8704;SDS011;4389;41.932;25.904;2022-12-18T00:39:05;65.67;;;33.60;;
8704;SDS011;4389;41.932;25.904;2022-12-18T00:41:34;49.83;;;31.17;;
8704;SDS011;4389;41.932;25.904;2022-12-18T00:44:18;58.20;;;32.53;;
8704;SDS011;4389;41.932;25.904;2022-12-18T00:46:46;49.90;;;31.50;;
8704;SDS011;4389;41.932;25.904;2022-12-18T00:49:14;49.37;;;31.47;;
8704;SDS011;4389;41.932;25.904;2022-12-18T00:51:42;51.83;;;30.93;;
8704;SDS011;4389;41.932;25.904;2022-12-18T00:54:09;59.87;;;31.90;;
8704;SDS011;4389;41.932;25.904;2022-12-18T00:56:38;58.57;;;32.23;;
8704;SDS011;4389;41.932;25.904;2022-12-18T00:59:05;61.00;;;33.87;;
8704;SDS011;4389;41.932;25.904;2022-12-18T01:01:32;60.03;;;34.03;;
8704;SDS011;4389;41.932;25.904;2022-12-18T01:03:59;57.90;;;32.88;;
8704;SDS011;4389;41.932;25.904;2022-12-18T01:06:27;60.33;;;33.70;;
8704;SDS011;4389;41.932;25.904;2022-12-18T01:08:54;59.20;;;34.27;;
8704;SDS011;4389;41.932;25.904;2022-12-18T01:11:21;64.80;;;33.60;;
8704;SDS011;4389;41.932;25.904;2022-12-18T01:13:50;62.47;;;35.87;;
8704;SDS011;4389;41.932;25.904;2022-12-18T01:16:18;55.33;;;32.97;;
8704;SDS011;4389;41.932;25.904;2022-12-18T01:18:45;55.43;;;32.47;;
8704;SDS011;4389;41.932;25.904;2022-12-18T01:21:12;52.97;;;31.37;;
8704;SDS011;4389;41.932;25.904;2022-12-18T01:23:41;56.53;;;32.30;;
8704;SDS011;4389;41.932;25.904;2022-12-18T01:26:08;47.60;;;30.70;;
8704;SDS011;4389;41.932;25.904;2022-12-18T01:28:37;51.50;;;32.60;;
8704;SDS011;4389;41.932;25.904;2022-12-18T01:31:13;50.47;;;30.83;;
8704;SDS011;4389;41.932;25.904;2022-12-18T01:33:42;50.53;;;30.70;;
8704;SDS011;4389;41.932;25.904;2022-12-18T01:36:14;53.07;;;31.87;;
8704;SDS011;4389;41.932;25.904;2022-12-18T01:38:41;47.73;;;29.60;;
8704;SDS011;4389;41.932;25.904;2022-12-18T01:41:08;51.90;;;30.70;;
8704;SDS011;4389;41.932;25.904;2022-12-18T01:43:46;51.93;;;30.03;;
8704;SDS011;4389;41.932;25.904;2022-12-18T01:46:19;63.73;;;35.40;;
8704;SDS011;4389;41.932;25.904;2022-12-18T01:48:48;60.90;;;34.27;;
8704;SDS011;4389;41.932;25.904;2022-12-18T01:51:16;52.03;;;31.70;;
8704;SDS011;4389;41.932;25.904;2022-12-18T01:53:44;46.83;;;28.17;;
8704;SDS011;4389;41.932;25.904;2022-12-18T01:56:13;46.00;;;29.97;;
8704;SDS011;4389;41.932;25.904;2022-12-18T01:58:44;49.50;;;29.20;;
8704;SDS011;4389;41.932;25.904;2022-12-18T02:01:18;40.70;;;27.10;;
8704;SDS011;4389;41.932;25.904;2022-12-18T02:03:47;43.90;;;26.60;;
8704;SDS011;4389;41.932;25.904;2022-12-18T02:06:15;37.67;;;25.67;;
8704;SDS011;4389;41.932;25.904;2022-12-18T02:08:52;36.70;;;24.53;;
8704;SDS011;4389;41.932;25.904;2022-12-18T02:11:31;34.53;;;23.33;;
8704;SDS011;4389;41.932;25.904;2022-12-18T02:14:08;35.47;;;24.00;;
8704;SDS011;4389;41.932;25.904;2022-12-18T02:16:45;34.17;;;24.47;;
8704;SDS011;4389;41.932;25.904;2022-12-18T02:19:36;37.87;;;24.80;;
8704;SDS011;4389;41.932;25.904;2022-12-18T02:22:15;33.50;;;24.27;;
8704;SDS011;4389;41.932;25.904;2022-12-18T02:24:53;34.83;;;25.23;;
8704;SDS011;4389;41.932;25.904;2022-12-18T02:27:27;33.43;;;24.73;;
8704;SDS011;4389;41.932;25.904;2022-12-18T02:29:58;38.30;;;24.67;;
8704;SDS011;4389;41.932;25.904;2022-12-18T02:32:30;37.93;;;25.67;;
8704;SDS011;4389;41.932;25.904;2022-12-18T02:35:12;32.63;;;22.97;;
8704;SDS011;4389;41.932;25.904;2022-12-18T02:37:41;30.47;;;22.37;;
8704;SDS011;4389;41.932;25.904;2022-12-18T02:40:11;33.23;;;23.13;;
8704;SDS011;4389;41.932;25.904;2022-12-18T02:42:41;32.73;;;22.97;;
8704;SDS011;4389;41.932;25.904;2022-12-18T02:45:08;31.23;;;22.90;;
8704;SDS011;4389;41.932;25.904;2022-12-18T02:47:37;32.90;;;22.80;;
8704;SDS011;4389;41.932;25.904;2022-12-18T02:50:07;33.10;;;23.77;;
8704;SDS011;4389;41.932;25.904;2022-12-18T02:52:42;34.47;;;22.90;;
8704;SDS011;4389;41.932;25.904;2022-12-18T02:55:19;35.97;;;24.27;;
8704;SDS011;4389;41.932;25.904;2022-12-18T02:57:57;28.40;;;22.70;;
8704;SDS011;4389;41.932;25.904;2022-12-18T03:00:30;33.73;;;23.60;;
8704;SDS011;4389;41.932;25.904;2022-12-18T03:03:05;28.07;;;22.00;;
8704;SDS011;4389;41.932;25.904;2022-12-18T03:05:38;27.83;;;21.37;;
8704;SDS011;4389;41.932;25.904;2022-12-18T03:08:10;32.80;;;22.83;;
8704;SDS011;4389;41.932;25.904;2022-12-18T03:10:44;31.80;;;24.17;;
8704;SDS011;4389;41.932;25.904;2022-12-18T03:13:18;34.33;;;24.03;;
8704;SDS011;4389;41.932;25.904;2022-12-18T03:15:50;32.30;;;24.70;;
8704;SDS011;4389;41.932;25.904;2022-12-18T03:18:21;35.70;;;24.40;;
8704;SDS011;4389;41.932;25.904;2022-12-18T03:20:52;32.30;;;23.43;;
8704;SDS011;4389;41.932;25.904;2022-12-18T03:23:22;32.40;;;22.63;;
8704;SDS011;4389;41.932;25.904;2022-12-18T03:25:54;27.57;;;22.00;;
8704;SDS011;4389;41.932;25.904;2022-12-18T03:28:27;29.53;;;22.67;;
8704;SDS011;4389;41.932;25.904;2022-12-18T03:30:57;30.03;;;20.43;;
8704;SDS011;4389;41.932;25.904;2022-12-18T03:33:27;28.73;;;20.87;;
8704;SDS011;4389;41.932;25.904;2022-12-18T03:35:58;27.83;;;20.93;;
8704;SDS011;4389;41.932;25.904;2022-12-18T03:38:25;31.17;;;22.23;;
8704;SDS011;4389;41.932;25.904;2022-12-18T03:40:55;28.53;;;20.83;;
8704;SDS011;4389;41.932;25.904;2022-12-18T03:43:30;26.67;;;20.97;;
8704;SDS011;4389;41.932;25.904;2022-12-18T03:46:07;26.83;;;21.80;;
8704;SDS011;4389;41.932;25.904;2022-12-18T03:48:41;34.10;;;25.90;;
8704;SDS011;4389;41.932;25.904;2022-12-18T03:51:16;30.27;;;23.57;;
8704;SDS011;4389;41.932;25.904;2022-12-18T03:53:51;29.90;;;22.77;;
8704;SDS011;4389;41.932;25.904;2022-12-18T03:56:22;32.47;;;24.03;;
8704;SDS011;4389;41.932;25.904;2022-12-18T03:58:53;33.50;;;22.93;;
8704;SDS011;4389;41.932;25.904;2022-12-18T04:01:23;32.93;;;23.43;;
8704;SDS011;4389;41.932;25.904;2022-12-18T04:03:54;28.37;;;20.73;;
8704;SDS011;4389;41.932;25.904;2022-12-18T04:06:23;31.77;;;23.37;;
8704;SDS011;4389;41.932;25.904;2022-12-18T04:08:50;32.70;;;25.93;;
8704;SDS011;4389;41.932;25.904;2022-12-18T04:11:17;33.93;;;25.47;;
8704;SDS011;4389;41.932;25.904;2022-12-18T04:13:44;34.20;;;27.87;;
8704;SDS011;4389;41.932;25.904;2022-12-18T04:16:12;33.53;;;25.37;;
8704;SDS011;4389;41.932;25.904;2022-12-18T04:18:39;37.73;;;27.97;;
8704;SDS011;4389;41.932;25.904;2022-12-18T04:21:06;34.97;;;26.27;;
8704;SDS011;4389;41.932;25.904;2022-12-18T04:23:33;38.30;;;26.07;;
8704;SDS011;4389;41.932;25.904;2022-12-18T04:26:00;33.87;;;25.77;;
8704;SDS011;4389;41.932;25.904;2022-12-18T04:28:27;29.63;;;23.57;;
8704;SDS011;4389;41.932;25.904;2022-12-18T04:30:53;31.57;;;22.97;;
8704;SDS011;4389;41.932;25.904;2022-12-18T04:33:22;29.40;;;23.17;;
8704;SDS011;4389;41.932;25.904;2022-12-18T04:35:49;29.60;;;21.70;;
8704;SDS011;4389;41.932;25.904;2022-12-18T04:38:15;33.10;;;22.90;;
8704;SDS011;4389;41.932;25.904;2022-12-18T04:40:42;31.67;;;21.87;;
8704;SDS011;4389;41.932;25.904;2022-12-18T04:43:09;26.13;;;21.03;;
8704;SDS011;4389;41.932;25.904;2022-12-18T04:45:36;30.77;;;22.47;;
8704;SDS011;4389;41.932;25.904;2022-12-18T04:48:04;27.60;;;21.03;;
8704;SDS011;4389;41.932;25.904;2022-12-18T04:50:32;31.60;;;23.23;;
8704;SDS011;4389;41.932;25.904;2022-12-18T04:52:59;29.93;;;21.47;;
8704;SDS011;4389;41.932;25.904;2022-12-18T04:55:26;28.43;;;21.87;;
8704;SDS011;4389;41.932;25.904;2022-12-18T04:57:53;29.33;;;22.10;;
8704;SDS011;4389;41.932;25.904;2022-12-18T05:00:20;30.50;;;22.43;;
8704;SDS011;4389;41.932;25.904;2022-12-18T05:02:47;25.20;;;20.97;;
8704;SDS011;4389;41.932;25.904;2022-12-18T05:05:14;32.77;;;22.97;;
8704;SDS011;4389;41.932;25.904;2022-12-18T05:07:43;32.20;;;22.70;;
8704;SDS011;4389;41.932;25.904;2022-12-18T05:10:10;29.43;;;21.37;;
8704;SDS011;4389;41.932;25.904;2022-12-18T05:12:37;29.63;;;23.23;;
8704;SDS011;4389;41.932;25.904;2022-12-18T05:15:23;33.63;;;23.70;;
8704;SDS011;4389;41.932;25.904;2022-12-18T05:17:50;29.40;;;22.90;;
8704;SDS011;4389;41.932;25.904;2022-12-18T05:20:17;29.17;;;22.20;;
8704;SDS011;4389;41.932;25.904;2022-12-18T05:22:46;27.17;;;21.87;;
8704;SDS011;4389;41.932;25.904;2022-12-18T05:25:13;28.90;;;22.67;;
8704;SDS011;4389;41.932;25.904;2022-12-18T05:27:40;30.47;;;23.27;;
8704;SDS011;4389;41.932;25.904;2022-12-18T05:30:07;28.47;;;22.57;;
8704;SDS011;4389;41.932;25.904;2022-12-18T05:32:35;32.27;;;21.93;;
8704;SDS011;4389;41.932;25.904;2022-12-18T05:35:02;28.63;;;22.67;;
8704;SDS011;4389;41.932;25.904;2022-12-18T05:37:30;27.03;;;22.50;;
8704;SDS011;4389;41.932;25.904;2022-12-18T05:39:58;31.03;;;23.30;;
8704;SDS011;4389;41.932;25.904;2022-12-18T05:42:25;31.77;;;22.33;;
8704;SDS011;4389;41.932;25.904;2022-12-18T05:44:53;30.87;;;21.97;;
8704;SDS011;4389;41.932;25.904;2022-12-18T05:47:20;31.17;;;23.20;;
8704;SDS011;4389;41.932;25.904;2022-12-18T05:49:47;30.93;;;22.50;;
8704;SDS011;4389;41.932;25.904;2022-12-18T05:52:14;32.50;;;23.23;;
8704;SDS011;4389;41.932;25.904;2022-12-18T05:54:41;32.00;;;22.57;;
8704;SDS011;4389;41.932;25.904;2022-12-18T05:57:09;27.67;;;21.13;;
8704;SDS011;4389;41.932;25.904;2022-12-18T05:59:36;30.23;;;22.43;;
8704;SDS011;4389;41.932;25.904;2022-12-18T06:02:03;28.17;;;20.60;;
8704;SDS011;4389;41.932;25.904;2022-12-18T06:04:30;28.40;;;21.63;;
8704;SDS011;4389;41.932;25.904;2022-12-18T06:06:57;26.20;;;21.30;;
8704;SDS011;4389;41.932;25.904;2022-12-18T06:09:24;23.10;;;18.83;;
8704;SDS011;4389;41.932;25.904;2022-12-18T06:11:51;27.33;;;19.57;;
8704;SDS011;4389;41.932;25.904;2022-12-18T06:14:20;25.23;;;19.57;;
8704;SDS011;4389;41.932;25.904;2022-12-18T06:16:46;29.53;;;21.10;;
8704;SDS011;4389;41.932;25.904;2022-12-18T06:19:14;26.87;;;20.17;;
8704;SDS011;4389;41.932;25.904;2022-12-18T06:21:42;25.30;;;20.00;;
8704;SDS011;4389;41.932;25.904;2022-12-18T06:24:09;23.67;;;18.43;;
8704;SDS011;4389;41.932;25.904;2022-12-18T06:26:37;23.73;;;17.47;;
8704;SDS011;4389;41.932;25.904;2022-12-18T06:29:04;21.53;;;16.77;;
8704;SDS011;4389;41.932;25.904;2022-12-18T06:31:32;25.97;;;17.53;;
8704;SDS011;4389;41.932;25.904;2022-12-18T06:34:01;24.27;;;16.60;;
8704;SDS011;4389;41.932;25.904;2022-12-18T06:36:29;22.70;;;16.50;;
8704;SDS011;4389;41.932;25.904;2022-12-18T06:38:56;21.67;;;14.60;;
8704;SDS011;4389;41.932;25.904;2022-12-18T06:41:23;20.87;;;13.83;;
8704;SDS011;4389;41.932;25.904;2022-12-18T06:43:50;17.07;;;12.83;;
8704;SDS011;4389;41.932;25.904;2022-12-18T06:46:17;16.70;;;12.17;;
8704;SDS011;4389;41.932;25.904;2022-12-18T06:48:47;18.27;;;11.60;;
8704;SDS011;4389;41.932;25.904;2022-12-18T06:51:16;13.50;;;10.87;;
8704;SDS011;4389;41.932;25.904;2022-12-18T06:53:46;15.63;;;11.20;;
8704;SDS011;4389;41.932;25.904;2022-12-18T06:56:13;15.40;;;9.90;;
8704;SDS011;4389;41.932;25.904;2022-12-18T06:58:40;16.20;;;10.00;;
8704;SDS011;4389;41.932;25.904;2022-12-18T07:01:08;12.53;;;10.27;;
8704;SDS011;4389;41.932;25.904;2022-12-18T07:03:37;13.43;;;10.57;;
8704;SDS011;4389;41.932;25.904;2022-12-18T07:06:05;17.13;;;10.70;;
8704;SDS011;4389;41.932;25.904;2022-12-18T07:08:33;15.60;;;10.77;;
8704;SDS011;4389;41.932;25.904;2022-12-18T07:11:02;14.27;;;11.63;;
8704;SDS011;4389;41.932;25.904;2022-12-18T07:13:30;19.73;;;11.00;;
8704;SDS011;4389;41.932;25.904;2022-12-18T07:16:02;12.90;;;11.27;;
8704;SDS011;4389;41.932;25.904;2022-12-18T07:18:30;21.13;;;12.93;;
8704;SDS011;4389;41.932;25.904;2022-12-18T07:20:57;16.30;;;10.90;;
8704;SDS011;4389;41.932;25.904;2022-12-18T07:23:25;13.57;;;11.40;;
8704;SDS011;4389;41.932;25.904;2022-12-18T07:25:52;15.17;;;12.10;;
8704;SDS011;4389;41.932;25.904;2022-12-18T07:28:19;21.27;;;12.80;;
8704;SDS011;4389;41.932;25.904;2022-12-18T07:30:46;18.80;;;11.87;;
8704;SDS011;4389;41.932;25.904;2022-12-18T07:33:13;17.40;;;12.13;;
8704;SDS011;4389;41.932;25.904;2022-12-18T07:35:40;13.77;;;10.97;;
8704;SDS011;4389;41.932;25.904;2022-12-18T07:38:07;14.57;;;11.27;;
8704;SDS011;4389;41.932;25.904;2022-12-18T07:40:35;16.97;;;12.17;;
8704;SDS011;4389;41.932;25.904;2022-12-18T07:43:02;18.20;;;11.07;;
8704;SDS011;4389;41.932;25.904;2022-12-18T07:45:29;16.87;;;11.27;;
8704;SDS011;4389;41.932;25.904;2022-12-18T07:47:56;17.30;;;12.03;;
8704;SDS011;4389;41.932;25.904;2022-12-18T07:50:23;20.07;;;11.33;;
8704;SDS011;4389;41.932;25.904;2022-12-18T07:52:50;22.23;;;12.20;;
8704;SDS011;4389;41.932;25.904;2022-12-18T07:55:17;18.00;;;11.67;;
8704;SDS011;4389;41.932;25.904;2022-12-18T07:57:45;17.30;;;13.40;;
8704;SDS011;4389;41.932;25.904;2022-12-18T08:00:12;18.90;;;12.77;;
8704;SDS011;4389;41.932;25.904;2022-12-18T08:02:40;20.93;;;12.63;;
8704;SDS011;4389;41.932;25.904;2022-12-18T08:05:07;21.60;;;12.97;;
8704;SDS011;4389;41.932;25.904;2022-12-18T08:07:34;16.90;;;12.10;;
8704;SDS011;4389;41.932;25.904;2022-12-18T08:10:01;14.83;;;12.37;;
8704;SDS011;4389;41.932;25.904;2022-12-18T08:12:29;14.33;;;12.00;;
8704;SDS011;4389;41.932;25.904;2022-12-18T08:14:57;22.27;;;12.23;;
8704;SDS011;4389;41.932;25.904;2022-12-18T08:17:23;13.40;;;11.20;;
8704;SDS011;4389;41.932;25.904;2022-12-18T08:19:50;17.00;;;10.57;;
8704;SDS011;4389;41.932;25.904;2022-12-18T08:22:17;22.77;;;13.33;;
8704;SDS011;4389;41.932;25.904;2022-12-18T08:24:44;13.20;;;10.73;;
8704;SDS011;4389;41.932;25.904;2022-12-18T08:27:11;14.57;;;10.30;;
8704;SDS011;4389;41.932;25.904;2022-12-18T08:29:38;11.07;;;9.87;;
8704;SDS011;4389;41.932;25.904;2022-12-18T08:32:06;13.93;;;10.27;;
8704;SDS011;4389;41.932;25.904;2022-12-18T08:34:33;15.13;;;9.63;;
8704;SDS011;4389;41.932;25.904;2022-12-18T08:37:00;14.57;;;9.43;;
8704;SDS011;4389;41.932;25.904;2022-12-18T08:39:27;11.77;;;9.20;;
8704;SDS011;4389;41.932;25.904;2022-12-18T08:41:54;11.60;;;7.63;;
8704;SDS011;4389;41.932;25.904;2022-12-18T08:44:37;11.97;;;8.63;;
8704;SDS011;4389;41.932;25.904;2022-12-18T08:47:04;13.13;;;8.80;;
8704;SDS011;4389;41.932;25.904;2022-12-18T08:49:33;11.00;;;8.33;;
8704;SDS011;4389;41.932;25.904;2022-12-18T08:52:01;9.27;;;8.27;;
8704;SDS011;4389;41.932;25.904;2022-12-18T08:54:28;15.10;;;10.87;;
8704;SDS011;4389;41.932;25.904;2022-12-18T08:56:55;13.10;;;8.57;;
8704;SDS011;4389;41.932;25.904;2022-12-18T08:59:22;11.10;;;6.97;;
8704;SDS011;4389;41.932;25.904;2022-12-18T09:01:49;12.77;;;6.70;;
8704;SDS011;4389;41.932;25.904;2022-12-18T09:04:16;7.10;;;6.40;;
8704;SDS011;4389;41.932;25.904;2022-12-18T09:06:44;11.27;;;7.00;;
8704;SDS011;4389;41.932;25.904;2022-12-18T09:09:11;8.30;;;7.00;;
8704;SDS011;4389;41.932;25.904;2022-12-18T09:11:38;12.23;;;7.40;;
8704;SDS011;4389;41.932;25.904;2022-12-18T09:14:06;7.67;;;6.87;;
8704;SDS011;4389;41.932;25.904;2022-12-18T09:16:32;8.67;;;7.17;;
8704;SDS011;4389;41.932;25.904;2022-12-18T09:19:00;7.37;;;6.47;;
8704;SDS011;4389;41.932;25.904;2022-12-18T09:21:29;8.30;;;6.83;;
8704;SDS011;4389;41.932;25.904;2022-12-18T09:23:59;8.40;;;6.73;;
8704;SDS011;4389;41.932;25.904;2022-12-18T09:26:26;10.03;;;7.00;;
8704;SDS011;4389;41.932;25.904;2022-12-18T09:28:53;11.43;;;8.00;;
8704;SDS011;4389;41.932;25.904;2022-12-18T09:31:21;10.17;;;7.23;;
8704;SDS011;4389;41.932;25.904;2022-12-18T09:33:49;11.73;;;8.43;;
8704;SDS011;4389;41.932;25.904;2022-12-18T09:36:16;8.63;;;7.20;;
8704;SDS011;4389;41.932;25.904;2022-12-18T09:38:44;10.90;;;7.13;;
8704;SDS011;4389;41.932;25.904;2022-12-18T09:41:17;9.20;;;6.70;;
8704;SDS011;4389;41.932;25.904;2022-12-18T09:43:57;8.87;;;6.80;;
8704;SDS011;4389;41.932;25.904;2022-12-18T09:46:28;9.30;;;7.20;;
8704;SDS011;4389;41.932;25.904;2022-12-18T09:48:59;8.20;;;6.73;;
8704;SDS011;4389;41.932;25.904;2022-12-18T09:51:30;9.00;;;7.03;;
8704;SDS011;4389;41.932;25.904;2022-12-18T09:54:02;11.17;;;7.87;;
8704;SDS011;4389;41.932;25.904;2022-12-18T09:56:34;10.33;;;8.00;;
8704;SDS011;4389;41.932;25.904;2022-12-18T09:59:04;7.70;;;6.83;;
8704;SDS011;4389;41.932;25.904;2022-12-18T10:01:31;9.40;;;7.97;;
8704;SDS011;4389;41.932;25.904;2022-12-18T10:03:59;12.93;;;7.17;;
8704;SDS011;4389;41.932;25.904;2022-12-18T10:06:27;10.00;;;7.60;;
8704;SDS011;4389;41.932;25.904;2022-12-18T10:09:03;7.47;;;6.67;;
8704;SDS011;4389;41.932;25.904;2022-12-18T10:11:40;8.97;;;7.93;;
8704;SDS011;4389;41.932;25.904;2022-12-18T10:14:16;10.37;;;8.37;;
8704;SDS011;4389;41.932;25.904;2022-12-18T10:16:52;15.17;;;8.83;;
8704;SDS011;4389;41.932;25.904;2022-12-18T10:19:33;8.57;;;7.60;;
8704;SDS011;4389;41.932;25.904;2022-12-18T10:22:10;10.83;;;8.27;;
8704;SDS011;4389;41.932;25.904;2022-12-18T10:24:44;10.83;;;7.67;;
8704;SDS011;4389;41.932;25.904;2022-12-18T10:27:18;11.53;;;8.23;;
8704;SDS011;4389;41.932;25.904;2022-12-18T10:29:49;10.50;;;7.97;;
8704;SDS011;4389;41.932;25.904;2022-12-18T10:32:17;14.77;;;8.97;;
8704;SDS011;4389;41.932;25.904;2022-12-18T10:34:45;13.27;;;9.07;;
8704;SDS011;4389;41.932;25.904;2022-12-18T10:37:14;14.13;;;10.67;;
8704;SDS011;4389;41.932;25.904;2022-12-18T10:39:44;12.07;;;9.50;;
8704;SDS011;4389;41.932;25.904;2022-12-18T10:42:13;11.07;;;9.10;;
8704;SDS011;4389;41.932;25.904;2022-12-18T10:44:45;11.37;;;9.17;;
8704;SDS011;4389;41.932;25.904;2022-12-18T10:47:14;11.30;;;9.53;;
8704;SDS011;4389;41.932;25.904;2022-12-18T10:49:47;13.97;;;10.30;;
8704;SDS011;4389;41.932;25.904;2022-12-18T10:52:17;12.30;;;9.57;;
8704;SDS011;4389;41.932;25.904;2022-12-18T10:54:48;11.93;;;8.83;;
8704;SDS011;4389;41.932;25.904;2022-12-18T10:57:18;13.40;;;10.07;;
8704;SDS011;4389;41.932;25.904;2022-12-18T11:02:50;14.07;;;10.30;;
8704;SDS011;4389;41.932;25.904;2022-12-18T11:05:27;10.87;;;9.33;;
8704;SDS011;4389;41.932;25.904;2022-12-18T11:07:56;12.07;;;9.53;;
8704;SDS011;4389;41.932;25.904;2022-12-18T11:10:25;12.00;;;9.17;;
8704;SDS011;4389;41.932;25.904;2022-12-18T11:13:08;10.90;;;8.40;;
8704;SDS011;4389;41.932;25.904;2022-12-18T11:15:39;10.30;;;8.60;;
8704;SDS011;4389;41.932;25.904;2022-12-18T11:18:14;10.70;;;7.93;;
8704;SDS011;4389;41.932;25.904;2022-12-18T11:20:49;13.47;;;8.00;;
8704;SDS011;4389;41.932;25.904;2022-12-18T11:23:18;9.30;;;7.20;;
8704;SDS011;4389;41.932;25.904;2022-12-18T11:25:51;10.23;;;7.50;;
8704;SDS011;4389;41.932;25.904;2022-12-18T11:28:27;10.03;;;8.03;;
8704;SDS011;4389;41.932;25.904;2022-12-18T11:33:58;12.87;;;7.30;;
8704;SDS011;4389;41.932;25.904;2022-12-18T11:36:30;10.10;;;8.00;;
8704;SDS011;4389;41.932;25.904;2022-12-18T11:39:00;17.03;;;8.30;;
8704;SDS011;4389;41.932;25.904;2022-12-18T11:41:36;10.80;;;7.73;;
8704;SDS011;4389;41.932;25.904;2022-12-18T11:44:27;17.50;;;7.97;;
8704;SDS011;4389;41.932;25.904;2022-12-18T11:47:01;10.93;;;8.20;;
8704;SDS011;4389;41.932;25.904;2022-12-18T11:49:35;12.47;;;7.77;;
8704;SDS011;4389;41.932;25.904;2022-12-18T11:52:06;10.13;;;7.60;;
8704;SDS011;4389;41.932;25.904;2022-12-18T11:54:36;9.70;;;7.63;;
8704;SDS011;4389;41.932;25.904;2022-12-18T11:57:04;10.87;;;7.60;;
8704;SDS011;4389;41.932;25.904;2022-12-18T11:59:42;10.87;;;8.53;;
8704;SDS011;4389;41.932;25.904;2022-12-18T12:02:33;10.20;;;7.67;;
8704;SDS011;4389;41.932;25.904;2022-12-18T12:05:18;9.93;;;6.67;;
8704;SDS011;4389;41.932;25.904;2022-12-18T12:07:56;7.60;;;5.37;;
8704;SDS011;4389;41.932;25.904;2022-12-18T12:10:34;7.33;;;4.77;;
8704;SDS011;4389;41.932;25.904;2022-12-18T12:13:15;6.17;;;4.63;;
8704;SDS011;4389;41.932;25.904;2022-12-18T12:15:53;9.27;;;4.07;;
8704;SDS011;4389;41.932;25.904;2022-12-18T12:18:34;5.03;;;4.53;;
8704;SDS011;4389;41.932;25.904;2022-12-18T12:21:14;4.53;;;4.00;;
8704;SDS011;4389;41.932;25.904;2022-12-18T12:23:48;4.57;;;3.90;;
8704;SDS011;4389;41.932;25.904;2022-12-18T12:26:24;5.20;;;4.00;;
8704;SDS011;4389;41.932;25.904;2022-12-18T12:29:04;5.37;;;4.40;;
8704;SDS011;4389;41.932;25.904;2022-12-18T12:31:49;7.57;;;4.60;;
8704;SDS011;4389;41.932;25.904;2022-12-18T12:34:30;5.90;;;4.60;;
8704;SDS011;4389;41.932;25.904;2022-12-18T12:37:07;4.90;;;4.20;;
8704;SDS011;4389;41.932;25.904;2022-12-18T12:39:44;7.00;;;4.90;;
8704;SDS011;4389;41.932;25.904;2022-12-18T12:42:15;5.13;;;4.63;;
8704;SDS011;4389;41.932;25.904;2022-12-18T12:45:05;5.93;;;4.37;;
8704;SDS011;4389;41.932;25.904;2022-12-18T12:47:40;5.43;;;4.90;;
8704;SDS011;4389;41.932;25.904;2022-12-18T12:50:14;6.93;;;5.27;;
8704;SDS011;4389;41.932;25.904;2022-12-18T12:52:45;5.87;;;5.27;;
8704;SDS011;4389;41.932;25.904;2022-12-18T12:55:14;6.23;;;4.77;;
8704;SDS011;4389;41.932;25.904;2022-12-18T12:57:46;8.63;;;4.80;;
8704;SDS011;4389;41.932;25.904;2022-12-18T13:00:19;5.60;;;4.83;;
8704;SDS011;4389;41.932;25.904;2022-12-18T13:02:48;6.07;;;5.47;;
8704;SDS011;4389;41.932;25.904;2022-12-18T13:05:23;6.43;;;5.13;;
8704;SDS011;4389;41.932;25.904;2022-12-18T13:07:56;7.53;;;5.90;;
8704;SDS011;4389;41.932;25.904;2022-12-18T13:10:32;5.90;;;5.27;;
8704;SDS011;4389;41.932;25.904;2022-12-18T13:13:01;6.57;;;5.53;;
8704;SDS011;4389;41.932;25.904;2022-12-18T13:15:31;8.03;;;6.03;;
8704;SDS011;4389;41.932;25.904;2022-12-18T13:18:04;7.36;;;5.56;;
8704;SDS011;4389;41.932;25.904;2022-12-18T13:20:38;7.03;;;5.70;;
8704;SDS011;4389;41.932;25.904;2022-12-18T13:23:20;7.53;;;5.63;;
8704;SDS011;4389;41.932;25.904;2022-12-18T13:25:54;7.37;;;5.60;;
8704;SDS011;4389;41.932;25.904;2022-12-18T13:28:22;6.67;;;5.60;;
8704;SDS011;4389;41.932;25.904;2022-12-18T13:31:10;5.67;;;5.10;;
8704;SDS011;4389;41.932;25.904;2022-12-18T13:33:41;6.00;;;5.33;;
8704;SDS011;4389;41.932;25.904;2022-12-18T13:36:13;9.37;;;6.83;;
8704;SDS011;4389;41.932;25.904;2022-12-18T13:41:49;8.27;;;6.23;;
8704;SDS011;4389;41.932;25.904;2022-12-18T13:44:24;7.23;;;6.37;;
8704;SDS011;4389;41.932;25.904;2022-12-18T13:46:56;8.53;;;6.60;;
8704;SDS011;4389;41.932;25.904;2022-12-18T13:49:24;13.13;;;9.70;;
8704;SDS011;4389;41.932;25.904;2022-12-18T13:51:56;8.17;;;7.10;;
8704;SDS011;4389;41.932;25.904;2022-12-18T13:54:25;9.40;;;6.50;;
8704;SDS011;4389;41.932;25.904;2022-12-18T13:56:56;12.70;;;8.23;;
8704;SDS011;4389;41.932;25.904;2022-12-18T13:59:23;8.23;;;7.00;;
8704;SDS011;4389;41.932;25.904;2022-12-18T14:01:52;9.63;;;7.43;;
8704;SDS011;4389;41.932;25.904;2022-12-18T14:04:23;9.53;;;7.30;;
8704;SDS011;4389;41.932;25.904;2022-12-18T14:06:52;7.53;;;6.53;;
8704;SDS011;4389;41.932;25.904;2022-12-18T14:09:26;9.80;;;7.77;;
8704;SDS011;4389;41.932;25.904;2022-12-18T14:11:55;10.97;;;7.20;;
8704;SDS011;4389;41.932;25.904;2022-12-18T14:14:50;9.83;;;8.17;;
8704;SDS011;4389;41.932;25.904;2022-12-18T14:17:18;10.50;;;8.60;;
8704;SDS011;4389;41.932;25.904;2022-12-18T14:19:46;10.33;;;8.43;;
8704;SDS011;4389;41.932;25.904;2022-12-18T14:22:17;9.80;;;8.20;;
8704;SDS011;4389;41.932;25.904;2022-12-18T14:24:45;10.50;;;8.80;;
8704;SDS011;4389;41.932;25.904;2022-12-18T14:27:17;11.90;;;9.13;;
8704;SDS011;4389;41.932;25.904;2022-12-18T14:29:48;17.33;;;14.83;;
8704;SDS011;4389;41.932;25.904;2022-12-18T14:32:16;12.17;;;10.37;;
8704;SDS011;4389;41.932;25.904;2022-12-18T14:34:44;10.87;;;9.43;;
8704;SDS011;4389;41.932;25.904;2022-12-18T14:37:12;14.70;;;11.40;;
8704;SDS011;4389;41.932;25.904;2022-12-18T14:39:52;11.63;;;9.50;;
8704;SDS011;4389;41.932;25.904;2022-12-18T14:42:24;13.00;;;10.43;;
8704;SDS011;4389;41.932;25.904;2022-12-18T14:47:53;13.00;;;10.30;;
8704;SDS011;4389;41.932;25.904;2022-12-18T14:50:20;11.10;;;8.87;;
8704;SDS011;4389;41.932;25.904;2022-12-18T14:52:47;7.40;;;6.00;;
8704;SDS011;4389;41.932;25.904;2022-12-18T14:55:16;8.80;;;7.37;;
8704;SDS011;4389;41.932;25.904;2022-12-18T14:57:44;9.50;;;7.97;;
8704;SDS011;4389;41.932;25.904;2022-12-18T15:00:16;11.47;;;6.93;;
8704;SDS011;4389;41.932;25.904;2022-12-18T15:02:45;10.57;;;9.07;;
8704;SDS011;4389;41.932;25.904;2022-12-18T15:05:17;10.90;;;7.47;;
8704;SDS011;4389;41.932;25.904;2022-12-18T15:07:46;7.97;;;6.90;;
8704;SDS011;4389;41.932;25.904;2022-12-18T15:10:17;9.63;;;7.27;;
8704;SDS011;4389;41.932;25.904;2022-12-18T15:12:46;10.80;;;7.63;;
8704;SDS011;4389;41.932;25.904;2022-12-18T15:18:18;9.77;;;7.30;;